sensor_id;sensor_type;location;lat;lon;timestamp;pressure;altitude;pressure_sealevel;temperature;humidity
60427;BME280;46274;47.168;27.604;2022-09-27T00:00:25;98839.78;;;14.39;79.27
60427;BME280;46274;47.168;27.604;2022-09-27T00:06:29;98789.31;;;14.36;77.08
60427;BME280;46274;47.168;27.604;2022-09-27T00:12:32;98830.91;;;14.74;77.32
60427;BME280;46274;47.168;27.604;2022-09-27T00:18:34;98823.78;;;14.73;77.60
60427;BME280;46274;47.168;27.604;2022-09-27T00:24:35;98830.84;;;14.92;76.58
60427;BME280;46274;47.168;27.604;2022-09-27T00:30:41;98823.19;;;14.71;77.70
60427;BME280;46274;47.168;27.604;2022-09-27T00:36:43;98810.69;;;14.51;78.02
60427;BME280;46274;47.168;27.604;2022-09-27T00:42:45;98669.47;;;13.94;78.23
60427;BME280;46274;47.168;27.604;2022-09-27T01:53:19;98764.38;;;14.63;79.79
60427;BME280;46274;47.168;27.604;2022-09-27T02:00:07;98733.88;;;14.43;80.91
60427;BME280;46274;47.168;27.604;2022-09-27T02:06:33;98664.94;;;13.88;81.80
60427;BME280;46274;47.168;27.604;2022-09-27T02:12:51;98691.41;;;14.11;82.37
60427;BME280;46274;47.168;27.604;2022-09-27T02:31:57;98633.81;;;13.05;86.95
60427;BME280;46274;47.168;27.604;2022-09-27T02:57:10;98653.41;;;14.16;83.21
60427;BME280;46274;47.168;27.604;2022-09-27T03:03:28;98559.13;;;14.04;80.83
60427;BME280;46274;47.168;27.604;2022-09-27T03:09:46;98571.72;;;14.05;80.28
60427;BME280;46274;47.168;27.604;2022-09-27T03:15:50;98644.81;;;14.55;79.00
60427;BME280;46274;47.168;27.604;2022-09-27T03:21:52;98617.06;;;14.46;79.79
60427;BME280;46274;47.168;27.604;2022-09-27T03:27:54;98618.97;;;14.46;80.10
60427;BME280;46274;47.168;27.604;2022-09-27T03:40:13;98554.91;;;14.08;80.02
60427;BME280;46274;47.168;27.604;2022-09-27T03:46:17;98594.56;;;14.15;81.18
60427;BME280;46274;47.168;27.604;2022-09-27T03:52:21;98591.59;;;14.05;81.86
60427;BME280;46274;47.168;27.604;2022-09-27T03:58:23;98589.69;;;14.06;80.95
60427;BME280;46274;47.168;27.604;2022-09-27T04:04:25;98532.59;;;13.64;81.23
60427;BME280;46274;47.168;27.604;2022-09-27T04:10:27;98524.75;;;13.44;81.39
60427;BME280;46274;47.168;27.604;2022-09-27T04:30:00;98622.38;;;14.06;79.91
60427;BME280;46274;47.168;27.604;2022-09-27T04:36:05;98620.00;;;13.98;80.78
60427;BME280;46274;47.168;27.604;2022-09-27T05:01:35;98607.09;;;14.16;80.99
60427;BME280;46274;47.168;27.604;2022-09-27T05:07:38;98604.88;;;14.25;81.76
60427;BME280;46274;47.168;27.604;2022-09-27T05:13:40;98487.59;;;13.49;82.13
60427;BME280;46274;47.168;27.604;2022-09-27T05:19:43;98618.59;;;14.18;82.25
60427;BME280;46274;47.168;27.604;2022-09-27T05:25:47;98615.66;;;14.32;81.89
60427;BME280;46274;47.168;27.604;2022-09-27T05:31:48;98571.22;;;14.08;83.08
60427;BME280;46274;47.168;27.604;2022-09-27T05:37:56;98630.59;;;14.53;81.92
60427;BME280;46274;47.168;27.604;2022-09-27T05:44:00;98629.06;;;14.57;82.70
60427;BME280;46274;47.168;27.604;2022-09-27T06:02:52;98559.84;;;14.34;84.43
60427;BME280;46274;47.168;27.604;2022-09-27T06:15:15;98544.53;;;14.80;82.84
60427;BME280;46274;47.168;27.604;2022-09-27T06:28:10;98537.25;;;14.98;80.70
60427;BME280;46274;47.168;27.604;2022-09-27T07:12:01;98571.81;;;16.34;80.57
60427;BME280;46274;47.168;27.604;2022-09-27T07:18:05;98479.47;;;15.63;79.18
60427;BME280;46274;47.168;27.604;2022-09-27T07:24:07;98511.88;;;16.10;79.17
60427;BME280;46274;47.168;27.604;2022-09-27T07:30:10;98633.28;;;16.87;77.95
60427;BME280;46274;47.168;27.604;2022-09-27T07:36:13;98636.16;;;16.97;77.17
60427;BME280;46274;47.168;27.604;2022-09-27T07:42:15;98580.50;;;16.87;75.55
60427;BME280;46274;47.168;27.604;2022-09-27T07:48:17;98567.66;;;16.87;75.86
60427;BME280;46274;47.168;27.604;2022-09-27T07:54:31;98604.56;;;17.07;77.18
60427;BME280;46274;47.168;27.604;2022-09-27T08:39:04;98619.16;;;19.01;70.32
60427;BME280;46274;47.168;27.604;2022-09-27T08:45:38;98569.78;;;18.16;67.22
60427;BME280;46274;47.168;27.604;2022-09-27T11:13:25;98447.97;;;21.92;54.44
60427;BME280;46274;47.168;27.604;2022-09-27T12:29:38;98407.53;;;21.14;52.25
60427;BME280;46274;47.168;27.604;2022-09-27T12:35:53;98382.56;;;21.40;51.77
60427;BME280;46274;47.168;27.604;2022-09-27T12:42:35;98449.16;;;21.81;53.04
60427;BME280;46274;47.168;27.604;2022-09-27T13:14:28;98327.44;;;21.45;51.34
60427;BME280;46274;47.168;27.604;2022-09-27T13:20:44;98406.97;;;21.56;52.39
60427;BME280;46274;47.168;27.604;2022-09-27T13:26:49;98438.03;;;22.69;52.48
60427;BME280;46274;47.168;27.604;2022-09-27T13:39:18;98438.00;;;21.67;52.03
60427;BME280;46274;47.168;27.604;2022-09-27T13:45:23;98429.88;;;21.81;52.83
60427;BME280;46274;47.168;27.604;2022-09-27T13:52:02;98443.69;;;21.47;52.32
60427;BME280;46274;47.168;27.604;2022-09-27T14:04:49;98456.63;;;21.81;54.54
60427;BME280;46274;47.168;27.604;2022-09-27T14:10:53;98397.16;;;21.01;53.54
60427;BME280;46274;47.168;27.604;2022-09-27T14:16:57;98454.53;;;21.67;53.75
60427;BME280;46274;47.168;27.604;2022-09-27T14:23:02;98389.88;;;21.20;52.47
60427;BME280;46274;47.168;27.604;2022-09-27T14:29:22;98365.13;;;21.15;53.13
60427;BME280;46274;47.168;27.604;2022-09-27T14:35:24;98417.59;;;21.34;52.17
60427;BME280;46274;47.168;27.604;2022-09-27T14:41:45;98431.09;;;21.70;52.47
60427;BME280;46274;47.168;27.604;2022-09-27T14:47:51;98453.25;;;21.15;54.74
60427;BME280;46274;47.168;27.604;2022-09-27T14:53:55;98437.44;;;21.31;54.81
60427;BME280;46274;47.168;27.604;2022-09-27T15:00:01;98411.03;;;21.30;53.72
60427;BME280;46274;47.168;27.604;2022-09-27T15:06:11;98416.88;;;20.79;54.10
60427;BME280;46274;47.168;27.604;2022-09-27T15:12:20;98386.34;;;21.15;52.78
60427;BME280;46274;47.168;27.604;2022-09-27T20:13:44;98419.31;;;14.62;74.54
60427;BME280;46274;47.168;27.604;2022-09-27T20:19:46;98404.59;;;14.63;73.43
60427;BME280;46274;47.168;27.604;2022-09-27T20:25:48;98436.63;;;15.13;71.55
60427;BME280;46274;47.168;27.604;2022-09-27T20:31:51;98429.72;;;14.65;73.79
60427;BME280;46274;47.168;27.604;2022-09-27T20:38:13;98436.94;;;15.00;73.06
60427;BME280;46274;47.168;27.604;2022-09-27T20:44:17;98417.38;;;14.74;73.94
60427;BME280;46274;47.168;27.604;2022-09-27T20:50:20;98408.59;;;14.32;76.00
60427;BME280;46274;47.168;27.604;2022-09-27T20:56:24;98428.91;;;14.65;75.39
60427;BME280;46274;47.168;27.604;2022-09-27T21:02:27;98389.56;;;14.60;73.91
60427;BME280;46274;47.168;27.604;2022-09-27T21:08:30;98429.47;;;14.95;73.14
60427;BME280;46274;47.168;27.604;2022-09-27T21:14:33;98383.88;;;14.62;72.85
60427;BME280;46274;47.168;27.604;2022-09-27T21:20:38;98394.88;;;14.67;73.34
60427;BME280;46274;47.168;27.604;2022-09-27T21:26:40;98408.59;;;14.72;73.68
60427;BME280;46274;47.168;27.604;2022-09-27T21:32:41;98412.38;;;14.71;73.51
60427;BME280;46274;47.168;27.604;2022-09-27T21:38:44;98399.34;;;13.92;76.57
60427;BME280;46274;47.168;27.604;2022-09-27T21:44:45;98405.13;;;13.96;76.82
60427;BME280;46274;47.168;27.604;2022-09-27T21:50:47;98401.84;;;14.34;74.48
60427;BME280;46274;47.168;27.604;2022-09-27T21:56:49;98396.84;;;14.03;75.68
60427;BME280;46274;47.168;27.604;2022-09-27T22:02:56;98395.97;;;14.14;74.66
60427;BME280;46274;47.168;27.604;2022-09-27T22:08:59;98391.50;;;13.96;75.37
60427;BME280;46274;47.168;27.604;2022-09-27T22:15:01;98378.16;;;13.83;74.48
60427;BME280;46274;47.168;27.604;2022-09-27T22:21:06;98391.34;;;13.50;76.97
60427;BME280;46274;47.168;27.604;2022-09-27T22:27:08;98355.97;;;13.27;76.84
60427;BME280;46274;47.168;27.604;2022-09-27T22:33:09;98392.88;;;13.46;76.43
60427;BME280;46274;47.168;27.604;2022-09-27T22:39:11;98357.84;;;13.62;74.87
60427;BME280;46274;47.168;27.604;2022-09-27T22:45:13;98346.00;;;13.44;75.96
60427;BME280;46274;47.168;27.604;2022-09-27T22:51:15;98352.38;;;13.15;76.90
60427;BME280;46274;47.168;27.604;2022-09-27T22:57:17;98368.72;;;13.62;75.19
60427;BME280;46274;47.168;27.604;2022-09-27T23:03:20;98356.53;;;13.29;75.40
60427;BME280;46274;47.168;27.604;2022-09-27T23:09:22;98370.97;;;13.41;76.88
60427;BME280;46274;47.168;27.604;2022-09-27T23:15:25;98354.63;;;13.18;76.80
60427;BME280;46274;47.168;27.604;2022-09-27T23:21:27;98359.34;;;13.10;77.29
60427;BME280;46274;47.168;27.604;2022-09-27T23:27:29;98362.91;;;13.23;75.82
60427;BME280;46274;47.168;27.604;2022-09-27T23:33:44;98374.88;;;13.34;75.43
60427;BME280;46274;47.168;27.604;2022-09-27T23:39:47;98357.84;;;13.26;74.37
60427;BME280;46274;47.168;27.604;2022-09-27T23:45:49;98311.44;;;12.74;75.02
60427;BME280;46274;47.168;27.604;2022-09-27T23:51:51;98359.78;;;12.96;75.92
60427;BME280;46274;47.168;27.604;2022-09-27T23:57:53;98345.88;;;13.04;75.08
